Red Rock, Oklahoma
Current Conditions -  °F | °C
As of 3:53 AM on Friday 21 Nov 2014 (Local Time) from KPNC Reporting Station
Overcast Overcast  
Wind Chill: 33°   Ceiling: 1100
Heat Index: 40°   Visibility: 10mi
Dew Point: 27°   Wind: 10mph
Humidity: 60%   Direction: 80°E
Pressure: 30.09"   Gusts: NA
Location:  36.46°N, 97.18°W
Report Text: KPNC 210953Z AUTO 08009KT 10SM OVC011 04/M03 A3009 RMK AO2 SLP189 T00441028
Loading
Personal Weather Stations






























Interactive Weather Map New forecast layout! Learn more

10-Day Weather Forecast

Advertisements
Track Severe Weather on mobile